UKON/NLV METAR and TAF weather

Enter ICAO airport designator
Station Type Date Time Source
UKON METAR 2021/01/15 14:00 UTC NOAA

UKON 151400Z 30005MPS 9999 FEW026CB M04/M08 Q1011 R22/090075 NOSIG


Station Type Date Time Source
UKON Decoded METAR 2021/01/15 14:00 UTC NOAA

Mykolaiv, Ukraine (UKON) 47-03-29N 031-55-15E
Jan 15, 2021 - 09:00 AM EST / 2021.01.15 1400 UTC
Wind: from the WNW (300 degrees) at 11 MPH (10 KT):0
Visibility: greater than 7 mile(s):0
Sky conditions: mostly clear
Weather: Cumulonimbus clouds observed
Temperature: 24 F (-4 C)
Windchill: 14 F (-10 C):1
Dew Point: 17 F (-8 C)
Relative Humidity: 73%
Pressure (altimeter): 29.85 in. Hg (1011 hPa)
ob: UKON 151400Z 30005MPS 9999 FEW026CB M04/M08 Q1011 R22/090075 NOSIG
cycle: 14

Station Type Date Time Source
UKON TAF 2018/11/06 15:06 UTC NOAA

TAF
AMD TAF
AMD UKON 061502Z 0615/0724 CNL

Example: see airport list